createdAt,value
2022-09-28T00:01:24.641Z,8.40
2022-09-28T00:03:57.635Z,8.88
2022-09-28T00:06:30.178Z,5.90
2022-09-28T00:08:59.292Z,6.63
2022-09-28T00:11:29.108Z,6.85
2022-09-28T00:14:00.106Z,10.18
2022-09-28T00:16:30.122Z,5.65
2022-09-28T00:18:59.844Z,6.10
2022-09-28T00:21:29.794Z,8.25
2022-09-28T00:24:15.215Z,7.88
2022-09-28T00:26:47.234Z,9.68
2022-09-28T00:29:22.005Z,7.30
2022-09-28T00:31:52.439Z,11.27
2022-09-28T00:34:22.139Z,9.00
2022-09-28T00:36:50.960Z,9.38
2022-09-28T00:39:19.854Z,7.97
2022-09-28T00:41:48.157Z,6.22
2022-09-28T00:44:39.659Z,7.85
2022-09-28T00:47:32.171Z,8.18
2022-09-28T00:50:06.778Z,7.78
2022-09-28T00:52:39.099Z,8.27
2022-09-28T00:55:14.751Z,13.85
2022-09-28T00:57:47.707Z,9.38
2022-09-28T01:02:45.016Z,7.20
2022-09-28T01:05:18.706Z,9.32
2022-09-28T01:07:48.519Z,8.68
2022-09-28T01:10:16.914Z,12.18
2022-09-28T01:12:44.948Z,7.68
2022-09-28T01:15:14.056Z,9.57
2022-09-28T01:17:57.113Z,6.82
2022-09-28T01:20:52.480Z,8.68
2022-09-28T01:23:34.065Z,9.02
2022-09-28T01:26:28.713Z,9.93
2022-09-28T01:29:05.563Z,8.43
2022-09-28T01:31:39.840Z,7.13
2022-09-28T01:36:44.637Z,8.27
2022-09-28T01:39:16.261Z,7.97
2022-09-28T01:41:51.304Z,6.32
2022-09-28T01:44:22.843Z,8.32
2022-09-28T01:46:53.113Z,7.35
2022-09-28T01:49:25.196Z,7.60
2022-09-28T01:51:57.050Z,10.10
2022-09-28T01:54:32.991Z,12.30
2022-09-28T01:57:09.627Z,7.95
2022-09-28T01:59:42.318Z,8.55
2022-09-28T02:02:15.564Z,7.95
2022-09-28T02:04:51.322Z,8.93
2022-09-28T02:07:24.057Z,9.35
2022-09-28T02:09:57.819Z,8.85
2022-09-28T02:12:34.443Z,8.52
2022-09-28T02:15:11.754Z,8.45
2022-09-28T02:17:40.014Z,9.77
2022-09-28T02:20:08.973Z,10.20
2022-09-28T02:22:43.661Z,7.88
2022-09-28T02:25:17.739Z,7.90
2022-09-28T02:27:55.078Z,8.93
2022-09-28T02:30:23.400Z,11.77
2022-09-28T02:32:55.583Z,8.77
2022-09-28T02:35:24.893Z,9.50
2022-09-28T02:37:54.278Z,8.32
2022-09-28T02:40:25.125Z,11.70
2022-09-28T02:43:06.485Z,9.07
2022-09-28T02:45:46.549Z,11.55
2022-09-28T02:48:43.235Z,11.30
2022-09-28T02:51:22.128Z,10.43
2022-09-28T02:54:07.229Z,12.25
2022-09-28T02:56:55.043Z,11.30
2022-09-28T02:59:36.482Z,12.07
2022-09-28T03:02:11.474Z,11.07
2022-09-28T03:04:47.071Z,14.15
2022-09-28T03:07:27.658Z,11.45
2022-09-28T03:10:02.628Z,14.07
2022-09-28T03:12:33.833Z,11.15
2022-09-28T03:15:13.588Z,13.27
2022-09-28T03:17:42.825Z,15.07
2022-09-28T03:20:12.511Z,12.15
2022-09-28T03:22:40.843Z,12.18
2022-09-28T03:25:09.779Z,12.48
2022-09-28T03:27:39.880Z,12.48
2022-09-28T03:30:11.590Z,13.00
2022-09-28T03:32:42.434Z,14.70
2022-09-28T03:35:13.322Z,14.27
2022-09-28T03:37:41.448Z,13.90
2022-09-28T03:40:10.268Z,13.90
2022-09-28T03:42:38.675Z,13.40
2022-09-28T03:45:07.711Z,14.77
2022-09-28T03:47:37.533Z,13.70
2022-09-28T03:50:06.882Z,12.93
2022-09-28T03:52:34.797Z,14.35
2022-09-28T03:55:03.029Z,14.68
2022-09-28T03:57:31.204Z,16.58
2022-09-28T03:59:59.284Z,15.65
2022-09-28T04:02:31.476Z,15.20
2022-09-28T04:05:01.064Z,16.08
2022-09-28T04:07:31.188Z,17.73
2022-09-28T04:10:00.075Z,13.25
2022-09-28T04:12:28.144Z,17.02
2022-09-28T04:14:56.283Z,15.60
2022-09-28T04:17:24.406Z,16.10
2022-09-28T04:19:52.781Z,18.98
2022-09-28T04:22:43.111Z,17.50
2022-09-28T04:25:11.330Z,18.50
2022-09-28T04:27:56.803Z,15.30
2022-09-28T04:30:24.983Z,24.20
2022-09-28T04:32:54.070Z,18.77
2022-09-28T04:35:22.072Z,18.77
2022-09-28T04:37:51.470Z,20.02
2022-09-28T04:40:19.521Z,18.33
2022-09-28T04:42:55.278Z,16.60
2022-09-28T04:45:25.947Z,18.92
2022-09-28T04:47:58.941Z,17.45
2022-09-28T04:50:45.471Z,24.20
2022-09-28T04:53:20.342Z,19.42
2022-09-28T04:55:57.594Z,21.90
2022-09-28T04:58:26.178Z,17.80
2022-09-28T05:00:54.796Z,21.42
2022-09-28T05:03:44.394Z,19.10
2022-09-28T05:06:30.660Z,34.33
2022-09-28T05:09:05.106Z,33.92
2022-09-28T05:11:34.511Z,25.88
2022-09-28T05:14:03.500Z,25.40
2022-09-28T05:16:33.758Z,22.55
2022-09-28T05:19:20.523Z,27.73
2022-09-28T05:21:49.126Z,28.17
2022-09-28T05:24:18.619Z,18.73
2022-09-28T05:26:54.006Z,20.33
2022-09-28T05:29:22.540Z,19.98
2022-09-28T05:32:09.418Z,18.65
2022-09-28T05:34:57.411Z,18.67
2022-09-28T05:37:31.321Z,16.48
2022-09-28T05:40:00.868Z,19.85
2022-09-28T05:42:28.913Z,18.40
2022-09-28T05:44:59.338Z,20.90
2022-09-28T05:47:28.646Z,20.75
2022-09-28T05:49:56.894Z,18.67
2022-09-28T05:52:24.953Z,18.33
2022-09-28T05:54:52.992Z,17.42
2022-09-28T05:57:22.444Z,16.50
2022-09-28T05:59:50.569Z,14.02
2022-09-28T06:02:18.771Z,23.17
2022-09-28T06:04:49.507Z,23.73
2022-09-28T06:07:17.560Z,23.42
2022-09-28T06:09:45.654Z,24.48
2022-09-28T06:12:20.982Z,24.25
2022-09-28T06:14:52.828Z,16.65
2022-09-28T06:17:21.044Z,20.70
2022-09-28T06:19:59.798Z,23.00
2022-09-28T06:22:37.130Z,21.77
2022-09-28T06:25:09.667Z,26.67
2022-09-28T06:27:42.507Z,24.50
2022-09-28T06:30:13.154Z,14.20
2022-09-28T06:32:42.145Z,18.20
2022-09-28T06:35:15.485Z,15.45
2022-09-28T06:37:46.333Z,15.70
2022-09-28T06:40:15.074Z,16.05
2022-09-28T06:42:43.685Z,27.17
2022-09-28T06:45:36.804Z,34.28
2022-09-28T06:48:27.916Z,23.65
2022-09-28T06:50:56.068Z,24.05
2022-09-28T06:53:37.705Z,15.93
2022-09-28T06:56:33.104Z,17.55
2022-09-28T06:59:01.627Z,15.70
2022-09-28T07:01:33.774Z,17.80
2022-09-28T07:04:28.057Z,15.32
2022-09-28T07:07:02.102Z,14.15
2022-09-28T07:09:59.326Z,16.63
2022-09-28T07:12:42.043Z,20.65
2022-09-28T07:15:25.512Z,14.82
2022-09-28T07:18:02.557Z,14.38
2022-09-28T07:20:38.680Z,15.85
2022-09-28T07:23:18.175Z,16.55
2022-09-28T07:26:08.900Z,16.75
2022-09-28T07:29:03.563Z,18.50
2022-09-28T07:31:54.881Z,16.13
2022-09-28T07:34:59.570Z,16.25
2022-09-28T07:37:44.753Z,17.13
2022-09-28T07:40:32.239Z,23.83
2022-09-28T07:43:05.421Z,23.13
2022-09-28T07:45:35.947Z,23.23
2022-09-28T07:48:04.954Z,22.58
2022-09-28T07:50:52.877Z,18.98
2022-09-28T07:53:59.214Z,19.13
2022-09-28T07:56:47.341Z,21.17
2022-09-28T07:59:31.746Z,20.25
2022-09-28T08:02:20.160Z,19.48
2022-09-28T08:04:48.748Z,30.75
2022-09-28T08:07:23.465Z,28.30
2022-09-28T08:09:58.373Z,36.83
2022-09-28T08:12:29.280Z,28.88
2022-09-28T08:15:16.244Z,17.80
2022-09-28T08:18:12.371Z,15.18
2022-09-28T08:20:57.700Z,16.02
2022-09-28T08:23:30.239Z,13.82
2022-09-28T08:25:58.413Z,12.18
2022-09-28T08:28:26.687Z,17.02
2022-09-28T08:31:01.159Z,17.75
2022-09-28T08:33:32.220Z,31.25
2022-09-28T08:36:18.912Z,19.02
2022-09-28T08:39:11.169Z,22.08
2022-09-28T08:42:10.391Z,37.72
2022-09-28T08:44:58.786Z,20.17
2022-09-28T08:48:12.277Z,18.25
2022-09-28T08:51:12.005Z,19.80
2022-09-28T08:54:01.734Z,30.48
2022-09-28T08:56:41.899Z,21.60
2022-09-28T08:59:16.703Z,16.15
2022-09-28T09:01:54.228Z,13.02
2022-09-28T09:04:24.108Z,26.80
2022-09-28T09:07:21.342Z,14.02
2022-09-28T09:10:13.024Z,12.40
2022-09-28T09:12:49.573Z,8.90
2022-09-28T09:15:48.761Z,14.50
2022-09-28T09:18:38.533Z,13.82
2022-09-28T09:21:43.262Z,13.73
2022-09-28T09:24:27.206Z,14.55
2022-09-28T09:27:06.891Z,12.27
2022-09-28T09:29:56.025Z,10.43
2022-09-28T09:32:42.490Z,8.55
2022-09-28T09:35:37.828Z,13.23
2022-09-28T09:38:49.270Z,13.20
2022-09-28T09:41:49.603Z,12.38
2022-09-28T09:45:07.599Z,13.05
2022-09-28T09:47:45.205Z,8.15
2022-09-28T09:50:30.073Z,9.30
2022-09-28T09:53:07.402Z,10.20
2022-09-28T09:55:40.627Z,9.65
2022-09-28T09:58:36.664Z,15.23
2022-09-28T10:01:21.019Z,6.88
2022-09-28T10:04:24.966Z,14.98
2022-09-28T10:06:59.687Z,12.82
2022-09-28T10:09:32.230Z,4.45
2022-09-28T10:12:20.610Z,8.52
2022-09-28T10:14:49.100Z,3.75
2022-09-28T10:17:26.686Z,11.40
2022-09-28T10:20:14.664Z,5.68
2022-09-28T10:23:02.958Z,10.82
2022-09-28T10:25:37.996Z,8.10
2022-09-28T10:28:07.881Z,5.53
2022-09-28T10:30:43.486Z,6.68
2022-09-28T10:33:32.235Z,10.13
2022-09-28T10:36:02.546Z,6.57
2022-09-28T10:38:35.230Z,6.78
2022-09-28T10:41:16.641Z,6.82
2022-09-28T10:44:07.329Z,7.72
2022-09-28T10:46:57.906Z,6.95
2022-09-28T10:49:28.554Z,6.20
2022-09-28T10:52:00.045Z,8.18
2022-09-28T10:54:33.581Z,8.27
2022-09-28T10:57:02.457Z,5.30
2022-09-28T10:59:49.559Z,6.78
2022-09-28T11:02:38.674Z,4.97
2022-09-28T11:07:55.730Z,8.00
2022-09-28T11:10:32.670Z,8.32
2022-09-28T11:13:10.623Z,7.13
2022-09-28T11:15:44.327Z,6.63
2022-09-28T11:18:26.739Z,6.00
2022-09-28T11:21:13.015Z,9.73
2022-09-28T11:23:57.948Z,15.80
2022-09-28T11:26:26.222Z,7.60
2022-09-28T11:28:57.142Z,7.82
2022-09-28T11:31:39.807Z,7.03
2022-09-28T11:34:30.993Z,17.10
2022-09-28T11:37:35.478Z,6.93
2022-09-28T11:40:16.995Z,9.30
2022-09-28T11:42:53.550Z,8.93
2022-09-28T11:45:39.312Z,14.07
2022-09-28T11:48:10.377Z,9.05
2022-09-28T11:50:47.822Z,8.85
2022-09-28T11:53:30.912Z,7.25
2022-09-28T11:56:15.603Z,9.52
2022-09-28T11:58:47.550Z,7.57
2022-09-28T12:01:25.556Z,9.88
2022-09-28T12:04:18.423Z,8.18
2022-09-28T12:06:54.532Z,6.00
2022-09-28T12:09:35.857Z,3.88
2022-09-28T12:12:21.166Z,4.60
2022-09-28T12:14:51.353Z,5.63
2022-09-28T12:17:24.682Z,4.38
2022-09-28T12:19:57.872Z,4.88
2022-09-28T12:22:33.231Z,4.28
2022-09-28T12:25:05.119Z,3.92
2022-09-28T12:27:39.754Z,3.83
2022-09-28T12:30:15.389Z,3.90
2022-09-28T12:32:48.592Z,3.33
2022-09-28T12:35:24.517Z,6.45
2022-09-28T12:38:08.771Z,2.85
2022-09-28T12:40:47.077Z,4.47
2022-09-28T12:43:45.561Z,2.60
2022-09-28T12:46:43.155Z,3.75
2022-09-28T12:50:33.277Z,4.38
2022-09-28T12:52:45.939Z,5.55
2022-09-28T12:55:25.537Z,3.00
2022-09-28T12:58:17.157Z,3.95
2022-09-28T13:01:03.291Z,13.55
2022-09-28T13:04:23.677Z,5.93
2022-09-28T13:07:01.471Z,5.88
2022-09-28T13:09:39.588Z,3.35
2022-09-28T13:12:25.860Z,5.68
2022-09-28T13:15:24.898Z,3.92
2022-09-28T13:18:00.366Z,4.93
2022-09-28T13:20:49.379Z,2.88
2022-09-28T13:23:22.349Z,4.07
2022-09-28T13:25:56.188Z,6.80
2022-09-28T13:28:27.379Z,7.53
2022-09-28T13:33:36.895Z,5.32
2022-09-28T13:36:25.793Z,3.25
2022-09-28T13:38:54.918Z,3.17
2022-09-28T13:41:29.159Z,5.00
2022-09-28T13:44:31.912Z,2.47
2022-09-28T13:47:20.611Z,4.60
2022-09-28T13:50:04.770Z,4.22
2022-09-28T13:52:44.715Z,5.65
2022-09-28T13:55:28.713Z,3.47
2022-09-28T13:58:00.936Z,2.80
2022-09-28T14:00:34.255Z,5.65
2022-09-28T14:03:23.382Z,3.42
2022-09-28T14:06:10.974Z,3.08
2022-09-28T14:08:45.053Z,4.38
2022-09-28T14:11:43.109Z,3.35
2022-09-28T14:14:48.718Z,2.78
2022-09-28T14:17:56.763Z,3.53
2022-09-28T14:20:31.498Z,4.40
2022-09-28T14:23:35.241Z,2.67
2022-09-28T14:26:44.472Z,3.75
2022-09-28T14:29:28.436Z,6.22
2022-09-28T14:31:58.288Z,4.20
2022-09-28T14:34:34.109Z,4.65
2022-09-28T14:37:23.323Z,6.13
2022-09-28T14:40:09.651Z,5.05
2022-09-28T14:42:37.812Z,4.85
2022-09-28T14:45:35.839Z,7.00
2022-09-28T14:48:19.167Z,3.53
2022-09-28T14:50:49.899Z,4.35
2022-09-28T14:53:25.009Z,11.35
2022-09-28T14:55:56.609Z,3.83
2022-09-28T14:58:27.430Z,4.00
2022-09-28T15:01:02.607Z,7.60
2022-09-28T15:03:34.206Z,4.22
2022-09-28T15:06:02.789Z,3.88
2022-09-28T15:08:39.456Z,7.90
2022-09-28T15:11:13.377Z,11.15
2022-09-28T15:13:41.580Z,4.45
2022-09-28T15:16:12.321Z,4.78
2022-09-28T15:19:10.506Z,7.30
2022-09-28T15:21:40.888Z,4.72
2022-09-28T15:24:34.044Z,6.68
2022-09-28T15:27:03.134Z,7.28
2022-09-28T15:29:33.235Z,5.43
2022-09-28T15:32:01.873Z,11.77
2022-09-28T15:34:49.587Z,7.00
2022-09-28T15:37:22.082Z,8.23
2022-09-28T15:39:53.548Z,7.20
2022-09-28T15:42:22.617Z,7.57
2022-09-28T15:45:04.175Z,10.45
2022-09-28T15:47:33.145Z,6.57
2022-09-28T15:50:02.821Z,7.63
2022-09-28T15:52:38.945Z,8.38
2022-09-28T15:55:22.086Z,5.13
2022-09-28T16:00:26.934Z,7.00
2022-09-28T16:03:20.257Z,6.45
2022-09-28T16:08:24.563Z,7.22
2022-09-28T16:11:04.037Z,7.95
2022-09-28T16:13:32.567Z,8.10
2022-09-28T16:16:01.743Z,11.48
2022-09-28T16:18:35.679Z,5.63
2022-09-28T16:21:27.666Z,5.05
2022-09-28T16:23:57.526Z,9.10
2022-09-28T16:26:32.855Z,9.30
2022-09-28T16:29:02.276Z,9.15
2022-09-28T16:31:34.706Z,7.07
2022-09-28T16:34:17.560Z,7.25
2022-09-28T16:36:47.642Z,12.88
2022-09-28T16:39:17.247Z,8.63
2022-09-28T16:41:50.198Z,9.43
2022-09-28T16:46:53.885Z,9.80
2022-09-28T16:49:23.962Z,7.43
2022-09-28T16:51:52.515Z,6.75
2022-09-28T16:54:39.943Z,10.32
2022-09-28T16:57:12.262Z,7.85
2022-09-28T16:59:40.421Z,10.20
2022-09-28T17:02:45.024Z,9.63
2022-09-28T17:05:08.870Z,9.85
2022-09-28T17:07:37.530Z,6.90
2022-09-28T17:10:15.675Z,12.55
2022-09-28T17:12:45.159Z,11.68
2022-09-28T17:15:18.733Z,8.07
2022-09-28T17:17:47.225Z,8.65
2022-09-28T17:20:22.745Z,6.53
2022-09-28T17:22:51.308Z,10.20
2022-09-28T17:25:19.406Z,15.18
2022-09-28T17:27:50.623Z,16.23
2022-09-28T17:30:23.661Z,11.60
2022-09-28T17:32:53.805Z,11.25
2022-09-28T17:35:24.696Z,10.07
2022-09-28T17:37:53.839Z,9.27
2022-09-28T17:40:23.632Z,9.98
2022-09-28T17:42:55.177Z,13.75
2022-09-28T17:45:24.180Z,14.60
2022-09-28T17:47:52.245Z,15.13
2022-09-28T17:50:25.199Z,11.60
2022-09-28T17:52:54.659Z,11.70
2022-09-28T17:55:24.396Z,12.38
2022-09-28T17:57:53.941Z,14.55
2022-09-28T18:00:22.835Z,14.40
2022-09-28T18:02:52.353Z,11.57
2022-09-28T18:05:20.754Z,13.93
2022-09-28T18:07:49.876Z,13.07
2022-09-28T18:10:21.307Z,13.70
2022-09-28T18:12:53.043Z,23.05
2022-09-28T18:15:20.980Z,13.55
2022-09-28T18:17:49.125Z,14.48
2022-09-28T18:20:17.200Z,13.25
2022-09-28T18:22:45.270Z,13.15
2022-09-28T18:25:13.919Z,17.33
2022-09-28T18:27:44.363Z,11.82
2022-09-28T18:30:13.958Z,11.13
2022-09-28T18:32:42.052Z,15.65
2022-09-28T18:35:11.286Z,14.15
2022-09-28T18:37:40.870Z,13.98
2022-09-28T18:40:13.982Z,15.77
2022-09-28T18:42:42.951Z,13.60
2022-09-28T18:45:16.659Z,14.32
2022-09-28T18:47:45.249Z,15.43
2022-09-28T18:50:15.445Z,13.68
2022-09-28T18:52:47.215Z,13.48
2022-09-28T18:55:15.924Z,15.27
2022-09-28T18:57:44.734Z,17.17
2022-09-28T19:00:15.814Z,17.13
2022-09-28T19:02:43.887Z,18.02
2022-09-28T19:05:12.243Z,20.38
2022-09-28T19:07:40.513Z,18.70
2022-09-28T19:10:09.540Z,19.65
2022-09-28T19:12:37.597Z,15.73
2022-09-28T19:15:06.562Z,17.25
2022-09-28T19:17:35.954Z,15.45
2022-09-28T19:20:04.586Z,15.88
2022-09-28T19:22:32.645Z,13.68
2022-09-28T19:25:00.695Z,13.35
2022-09-28T19:27:28.665Z,15.35
2022-09-28T19:29:56.591Z,13.70
2022-09-28T19:32:24.641Z,12.63
2022-09-28T19:34:54.020Z,15.13
2022-09-28T19:37:22.148Z,14.68
2022-09-28T19:39:50.258Z,12.73
2022-09-28T19:42:18.405Z,16.77
2022-09-28T19:44:47.419Z,13.43
2022-09-28T19:47:18.765Z,12.70
2022-09-28T19:49:48.006Z,13.65
2022-09-28T19:52:19.694Z,14.63
2022-09-28T19:54:56.775Z,14.75
2022-09-28T19:57:27.622Z,20.17
2022-09-28T20:00:02.054Z,15.38
2022-09-28T20:02:34.060Z,17.05
2022-09-28T20:05:02.186Z,21.25
2022-09-28T20:07:36.102Z,16.25
2022-09-28T20:10:04.197Z,14.55
2022-09-28T20:12:32.164Z,18.95
2022-09-28T20:15:00.130Z,18.73
2022-09-28T20:17:28.654Z,20.88
2022-09-28T20:19:57.531Z,20.63
2022-09-28T20:22:25.631Z,24.30
2022-09-28T20:24:55.003Z,19.77
2022-09-28T20:27:26.211Z,23.27
2022-09-28T20:29:56.797Z,24.85
2022-09-28T20:32:25.209Z,25.65
2022-09-28T20:34:53.333Z,25.40
2022-09-28T20:37:21.508Z,22.10
2022-09-28T20:39:50.155Z,31.33
2022-09-28T20:42:20.120Z,34.10
2022-09-28T20:44:48.420Z,35.45
2022-09-28T20:47:16.787Z,33.60
2022-09-28T20:49:47.516Z,32.67
2022-09-28T20:52:15.939Z,30.45
2022-09-28T20:54:44.043Z,29.80
2022-09-28T20:57:18.406Z,24.95
2022-09-28T20:59:53.641Z,26.58
2022-09-28T21:02:22.978Z,23.98
2022-09-28T21:04:51.525Z,21.48
2022-09-28T21:07:19.592Z,18.55
2022-09-28T21:09:47.638Z,16.08
2022-09-28T21:12:15.631Z,16.50
2022-09-28T21:14:43.624Z,16.17
2022-09-28T21:17:15.071Z,17.52
2022-09-28T21:19:43.017Z,16.92
2022-09-28T21:22:10.983Z,16.00
2022-09-28T21:24:39.030Z,15.95
2022-09-28T21:27:07.183Z,16.50
2022-09-28T21:29:35.150Z,15.15
2022-09-28T21:32:03.459Z,15.90
2022-09-28T21:34:33.627Z,18.05
2022-09-28T21:37:01.656Z,16.77
2022-09-28T21:39:29.612Z,13.90
2022-09-28T21:41:57.602Z,13.68
2022-09-28T21:44:25.568Z,14.70
2022-09-28T21:46:53.526Z,14.23
2022-09-28T21:49:21.485Z,17.33
2022-09-28T21:51:52.250Z,13.45
2022-09-28T21:54:20.336Z,13.82
2022-09-28T21:56:48.462Z,12.85
2022-09-28T21:59:16.588Z,13.23
2022-09-28T22:01:44.634Z,13.00
2022-09-28T22:04:12.853Z,11.48
2022-09-28T22:06:43.668Z,12.02
2022-09-28T22:09:13.045Z,12.68
2022-09-28T22:11:41.129Z,11.73
2022-09-28T22:14:11.589Z,12.00
2022-09-28T22:16:42.030Z,13.45
2022-09-28T22:19:10.580Z,15.10
2022-09-28T22:21:39.019Z,15.88
2022-09-28T22:24:08.528Z,11.75
2022-09-28T22:26:39.361Z,14.77
2022-09-28T22:29:09.080Z,13.07
2022-09-28T22:31:39.727Z,12.80
2022-09-28T22:34:08.692Z,17.48
2022-09-28T22:36:37.018Z,12.55
2022-09-28T22:39:07.503Z,12.80
2022-09-28T22:41:36.970Z,14.32
2022-09-28T22:44:05.080Z,13.95
2022-09-28T22:46:33.303Z,13.73
2022-09-28T22:49:02.090Z,12.13
2022-09-28T22:51:31.597Z,13.30
2022-09-28T22:54:00.147Z,16.40
2022-09-28T22:56:28.382Z,16.10
2022-09-28T22:58:58.035Z,12.23
2022-09-28T23:01:28.121Z,15.35
2022-09-28T23:03:57.292Z,14.75
2022-09-28T23:06:30.235Z,12.80
2022-09-28T23:08:58.403Z,15.05
2022-09-28T23:11:26.869Z,14.48
2022-09-28T23:13:57.825Z,12.32
2022-09-28T23:16:27.019Z,13.35
2022-09-28T23:18:55.966Z,12.55
2022-09-28T23:21:25.625Z,14.93
2022-09-28T23:23:56.271Z,14.32
2022-09-28T23:26:26.760Z,13.10
2022-09-28T23:28:55.476Z,14.95
2022-09-28T23:31:26.709Z,16.38
2022-09-28T23:33:59.261Z,13.60
2022-09-28T23:36:27.642Z,14.68
2022-09-28T23:38:55.758Z,16.45
2022-09-28T23:41:24.115Z,15.23
2022-09-28T23:43:52.350Z,15.32
2022-09-28T23:46:21.308Z,16.02
2022-09-28T23:48:51.289Z,15.15
2022-09-28T23:51:19.558Z,15.38
2022-09-28T23:53:48.105Z,15.98
2022-09-28T23:56:16.364Z,15.82
2022-09-28T23:58:48.750Z,16.38
